Aeroporto :
LOGIN :

Iscrizione | Disclaimer

   EN    FR    IT 

 










Sommario :    VFR   VFR Marginale   IFR   IFR Intensivo   IFR Molto Intensivo
Visibilità : 
Base nubi : 
>= 8 km
>= 3000ft
5 / 8 km
1000 / 3000 ft
1500m / 5 km
500 / 1000 ft
800 / 1500m
200 / 500 ft
< 800m
< 200 ft
Simboli :   Temporali  Nebbia  Neve Forte  Precipitazioni Forti  Vento > 20 kt
SIGMETs :   Varie  Temporali  Ghiacco  Turbolenza  Onda orograficha  Ceneri Vulcaniche






- Altitudine del aeroporto : 266 ft
- Codice IATA : NCL


EGNT - Newcastle

ULTIMO METAR :
  • 240520Z 01011KT 340V060 9999 BKN045 05/M01 Q1019

METARs OBSOLETI :
  • 240450Z 36008KT 9999 BKN045 05/M01 Q1019
  • 240420Z 36009KT 9999 BKN048 05/M01 Q1019
  • 240350Z 35009KT 9999 BKN049 05/M01 Q1019
  • 240320Z 36007KT 9999 BKN049 04/00 Q1020
  • 240250Z 36008KT 330V030 9999 BKN049 04/00 Q1020
  • 240220Z 34006KT 9999 BKN044 04/00 Q1020
  • 240150Z 36013KT 9999 BKN044 04/00 Q1020
  • 240120Z 36011KT 9999 BKN048 05/M00 Q1021
  • 240050Z 01008KT 330V030 9999 BKN042 05/M00 Q1021

TAF TAF EGNT
Valido dal 24 a 06 ore il 25 a 06 ore UTC


240459Z 2406/2506 35010KT 9999 SCT035
PROB30
TEMPO 2406/2412 8000 -SHRA
BECMG 2415/2418 VRB04KT
PROB30
TEMPO 2503/2506 6000 SHRA BKN014
ATIS : +44 191 214 3400



MetMap, La meteo Aeronautica in un colpo d'occhio ! - Copyright ORBIFLY Dicembre 2007 - Disclaimer

ORBIFLY MET'MAP TEAM :

Programmazione e sviluppo : Alexandra Zaïnal
Concezione : Baudouin d'Aumeries
Supporto tecnico e logistico : Manuel Goepfert
Aiuto : Marc-Olivier Méhu
Aiuto per la traduzione : Arnaldo La Scala




FONTI E CREDITI :

   NOAA